createdAt,value
2023-07-24T00:02:01.301Z,99690.13
2023-07-24T00:05:04.348Z,99683.66
2023-07-24T00:08:08.148Z,99679.47
2023-07-24T00:11:10.933Z,99671.03
2023-07-24T00:14:13.303Z,99663.91
2023-07-24T00:17:16.108Z,99663.81
2023-07-24T00:20:18.582Z,99668.63
2023-07-24T00:23:21.385Z,99660.72
2023-07-24T00:26:23.754Z,99657.41
2023-07-24T00:29:26.404Z,99666.81
2023-07-24T00:32:28.878Z,99666.75
2023-07-24T00:35:31.950Z,99666.84
2023-07-24T00:38:35.153Z,99665.22
2023-07-24T00:41:38.044Z,99669.03
2023-07-24T00:44:40.394Z,99634.38
2023-07-24T00:47:44.350Z,99658.59
2023-07-24T00:50:49.543Z,99675.59
2023-07-24T00:53:52.333Z,99655.06
2023-07-24T00:56:54.854Z,99668.75
2023-07-24T00:59:57.566Z,99663.19
2023-07-24T01:03:00.948Z,99664.19
2023-07-24T01:09:07.418Z,99654.41
2023-07-24T01:12:13.568Z,99652.75
2023-07-24T01:15:22.156Z,99655.97
2023-07-24T01:18:25.812Z,99651.97
2023-07-24T01:21:35.313Z,99654.78
2023-07-24T01:27:57.650Z,99651.41
2023-07-24T01:31:01.345Z,99657.37
2023-07-24T01:34:05.657Z,99659.13
2023-07-24T01:37:08.603Z,99658.63
2023-07-24T01:40:11.620Z,99644.19
2023-07-24T01:43:14.845Z,99655.59
2023-07-24T01:46:17.355Z,99661.06
2023-07-24T01:49:20.087Z,99655.41
2023-07-24T01:52:22.488Z,99657.37
2023-07-24T01:55:26.011Z,99655.22
2023-07-24T01:58:30.241Z,99658.13
2023-07-24T02:01:33.219Z,99671.00
2023-07-24T02:04:35.867Z,99667.31
2023-07-24T02:07:39.050Z,99635.00
2023-07-24T02:10:41.651Z,99666.13
2023-07-24T02:13:47.825Z,99650.69
2023-07-24T02:16:50.635Z,99651.91
2023-07-24T02:19:53.043Z,99655.97
2023-07-24T02:22:55.651Z,99668.66
2023-07-24T02:25:57.995Z,99653.44
2023-07-24T02:29:00.713Z,99658.03
2023-07-24T02:32:03.190Z,99652.47
2023-07-24T02:35:06.505Z,99656.44
2023-07-24T02:38:09.471Z,99659.09
2023-07-24T02:41:12.087Z,99657.41
2023-07-24T02:44:14.527Z,99658.81
2023-07-24T02:47:17.954Z,99655.88
2023-07-24T02:50:20.419Z,99655.69
2023-07-24T02:53:23.115Z,99654.62
2023-07-24T02:59:31.279Z,99648.75
2023-07-24T03:02:35.519Z,99641.13
2023-07-24T03:05:38.775Z,99639.56
2023-07-24T03:11:46.185Z,99639.84
2023-07-24T03:14:48.833Z,99638.97
2023-07-24T03:17:51.579Z,99646.88
2023-07-24T03:20:54.121Z,99649.00
2023-07-24T03:23:56.795Z,99638.09
2023-07-24T03:26:59.203Z,99631.75
2023-07-24T03:30:01.901Z,99623.84
2023-07-24T03:33:05.092Z,99637.03
2023-07-24T03:36:07.814Z,99652.13
2023-07-24T03:39:12.063Z,99651.47
2023-07-24T03:42:26.300Z,99655.19
2023-07-24T03:45:28.688Z,99648.56
2023-07-24T03:48:31.454Z,99645.38
2023-07-24T03:51:34.459Z,99639.41
2023-07-24T03:54:37.142Z,99644.00
2023-07-24T03:57:39.478Z,99651.44
2023-07-24T04:00:42.199Z,99645.09
2023-07-24T04:03:45.289Z,99651.44
2023-07-24T04:06:48.820Z,99653.78
2023-07-24T04:09:51.431Z,99654.19
2023-07-24T04:12:53.813Z,99666.00
2023-07-24T04:15:58.316Z,99657.16
2023-07-24T04:19:00.665Z,99663.56
2023-07-24T04:22:03.424Z,99660.84
2023-07-24T04:25:07.999Z,99654.62
2023-07-24T04:28:10.645Z,99660.69
2023-07-24T04:31:13.174Z,99654.53
2023-07-24T04:34:16.222Z,99654.47
2023-07-24T04:37:19.425Z,99652.69
2023-07-24T04:40:22.097Z,99653.25
2023-07-24T04:43:24.485Z,99657.72
2023-07-24T04:46:27.278Z,99658.31
2023-07-24T04:49:31.007Z,99643.72
2023-07-24T04:52:33.696Z,99655.75
2023-07-24T04:55:36.062Z,99657.44
2023-07-24T04:58:38.800Z,99662.41
2023-07-24T05:01:41.231Z,99667.38
2023-07-24T05:04:43.916Z,99651.72
2023-07-24T05:07:46.542Z,99653.25
2023-07-24T05:10:55.148Z,99650.53
2023-07-24T05:13:59.271Z,99657.22
2023-07-24T05:17:01.955Z,99656.78
2023-07-24T05:20:06.036Z,99651.94
2023-07-24T05:23:09.620Z,99652.81
2023-07-24T05:26:11.973Z,99655.12
2023-07-24T05:29:14.642Z,99652.44
2023-07-24T05:32:17.058Z,99658.84
2023-07-24T05:35:19.786Z,99648.03
2023-07-24T05:38:22.141Z,99655.94
2023-07-24T05:41:24.786Z,99646.94
2023-07-24T05:44:27.177Z,99658.25
2023-07-24T05:47:29.813Z,99658.34
2023-07-24T05:50:33.052Z,99664.34
2023-07-24T05:53:35.730Z,99668.50
2023-07-24T05:56:40.013Z,99668.13
2023-07-24T05:59:43.612Z,99662.06
2023-07-24T06:02:46.309Z,99664.47
2023-07-24T06:05:53.620Z,99662.50
2023-07-24T06:08:55.974Z,99668.16
2023-07-24T06:11:58.658Z,99665.47
2023-07-24T06:15:01.034Z,99656.78
2023-07-24T06:18:03.730Z,99651.81
2023-07-24T06:21:06.110Z,99644.53
2023-07-24T06:24:13.076Z,99645.66
2023-07-24T06:27:15.849Z,99648.16
2023-07-24T06:30:18.518Z,99637.78
2023-07-24T06:33:22.475Z,99630.16
2023-07-24T06:36:25.270Z,99622.78
2023-07-24T06:39:29.501Z,99618.72
2023-07-24T06:42:32.184Z,99612.16
2023-07-24T06:45:34.696Z,99605.28
2023-07-24T06:48:37.378Z,99604.91
2023-07-24T06:51:39.806Z,99613.03
2023-07-24T06:54:42.486Z,99604.66
2023-07-24T06:57:44.845Z,99602.63
2023-07-24T07:00:47.493Z,99610.53
2023-07-24T07:03:50.075Z,99609.19
2023-07-24T07:06:52.742Z,99605.91
2023-07-24T07:09:55.207Z,99572.06
2023-07-24T07:12:57.864Z,99600.44
2023-07-24T07:16:00.260Z,99607.00
2023-07-24T07:19:02.925Z,99602.56
2023-07-24T07:22:05.508Z,99614.34
2023-07-24T07:25:08.290Z,99603.03
2023-07-24T07:28:10.711Z,99616.38
2023-07-24T07:31:13.379Z,99620.25
2023-07-24T07:34:15.885Z,99605.69
2023-07-24T07:37:18.560Z,99604.56
2023-07-24T07:40:20.945Z,99589.13
2023-07-24T07:43:23.645Z,99581.44
2023-07-24T07:46:26.960Z,99573.28
2023-07-24T07:49:31.363Z,99569.19
2023-07-24T07:52:33.882Z,99559.78
2023-07-24T07:55:36.572Z,99550.25
2023-07-24T07:58:38.910Z,99536.94
2023-07-24T08:01:41.849Z,99535.87
2023-07-24T08:04:44.503Z,99537.16
2023-07-24T08:07:46.882Z,99530.38
2023-07-24T08:10:49.594Z,99526.59
2023-07-24T08:13:51.989Z,99526.34
2023-07-24T08:16:54.918Z,99515.63
2023-07-24T08:19:57.366Z,99524.06
2023-07-24T08:23:00.061Z,99516.69
2023-07-24T08:26:03.697Z,99508.84
2023-07-24T08:29:06.687Z,99514.00
2023-07-24T08:32:09.193Z,99504.44
2023-07-24T08:35:11.934Z,99503.81
2023-07-24T08:38:14.299Z,99501.25
2023-07-24T08:41:16.947Z,99494.22
2023-07-24T08:44:19.566Z,99495.72
2023-07-24T08:47:22.889Z,99486.53
2023-07-24T08:50:26.305Z,99478.94
2023-07-24T08:53:30.353Z,99475.37
2023-07-24T08:56:33.069Z,99477.88
2023-07-24T08:59:36.237Z,99458.31
2023-07-24T09:02:38.649Z,99464.03
2023-07-24T09:05:41.329Z,99457.16
2023-07-24T09:08:44.434Z,99458.88
2023-07-24T09:11:52.279Z,99450.19
2023-07-24T09:15:07.887Z,99451.81
2023-07-24T09:18:11.255Z,99436.00
2023-07-24T09:21:14.598Z,99434.72
2023-07-24T09:24:17.331Z,99434.03
2023-07-24T09:27:19.891Z,99429.31
2023-07-24T09:30:24.789Z,99422.25
2023-07-24T09:33:38.752Z,99420.47
2023-07-24T09:36:41.454Z,99412.16
2023-07-24T09:39:47.567Z,99397.34
2023-07-24T09:43:14.112Z,99395.59
2023-07-24T09:46:13.161Z,99399.44
2023-07-24T09:49:16.146Z,99377.38
2023-07-24T09:52:20.435Z,99361.56
2023-07-24T09:55:30.238Z,99367.47
2023-07-24T09:58:38.095Z,99362.88
2023-07-24T10:01:40.878Z,99365.84
2023-07-24T10:04:44.205Z,99353.22
2023-07-24T10:07:48.043Z,99345.34
2023-07-24T10:10:53.417Z,99338.03
2023-07-24T10:13:56.064Z,99327.75
2023-07-24T10:16:58.722Z,99321.31
2023-07-24T10:20:04.886Z,99310.59
2023-07-24T10:23:10.784Z,99302.63
2023-07-24T10:26:15.637Z,99301.22
2023-07-24T10:29:19.309Z,99299.56
2023-07-24T10:32:21.769Z,99295.34
2023-07-24T10:35:25.686Z,99278.19
2023-07-24T10:38:55.299Z,99274.78
2023-07-24T10:42:06.630Z,99268.59
2023-07-24T10:45:09.928Z,99268.69
2023-07-24T10:48:13.216Z,99260.06
2023-07-24T10:51:15.691Z,99257.00
2023-07-24T10:54:21.881Z,99259.22
2023-07-24T10:57:28.049Z,99248.47
2023-07-24T11:00:30.868Z,99247.56
2023-07-24T11:03:33.663Z,99249.81
2023-07-24T11:06:36.872Z,99233.25
2023-07-24T11:09:41.480Z,99223.87
2023-07-24T11:12:44.270Z,99233.59
2023-07-24T11:15:47.125Z,99220.34
2023-07-24T11:18:55.144Z,99204.75
2023-07-24T11:21:59.336Z,99222.09
2023-07-24T11:25:05.776Z,99209.22
2023-07-24T11:28:10.690Z,99189.38
2023-07-24T11:31:13.530Z,99183.34
2023-07-24T11:34:17.008Z,99183.22
2023-07-24T11:37:20.158Z,99176.44
2023-07-24T11:40:23.033Z,99162.78
2023-07-24T11:43:26.536Z,99150.88
2023-07-24T11:46:30.314Z,99157.00
2023-07-24T11:49:33.777Z,99156.56
2023-07-24T11:52:44.764Z,99160.22
2023-07-24T11:55:47.356Z,99157.34
2023-07-24T11:58:49.704Z,99155.16
2023-07-24T12:01:52.606Z,99148.72
2023-07-24T12:05:01.507Z,99146.87
2023-07-24T12:08:05.047Z,99147.16
2023-07-24T12:11:18.447Z,99148.56
2023-07-24T12:14:20.887Z,99144.97
2023-07-24T12:17:23.590Z,99150.75
2023-07-24T12:20:26.084Z,99129.75
2023-07-24T12:23:28.778Z,99118.34
2023-07-24T12:26:31.180Z,99120.72
2023-07-24T12:29:33.842Z,99104.63
2023-07-24T12:32:36.378Z,99100.38
2023-07-24T12:35:39.134Z,99094.47
2023-07-24T12:38:41.554Z,99076.44
2023-07-24T12:41:44.216Z,99076.66
2023-07-24T12:44:46.562Z,99068.66
2023-07-24T12:47:49.335Z,99064.22
2023-07-24T12:50:52.276Z,99057.69
2023-07-24T12:54:09.504Z,99060.69
2023-07-24T12:57:17.357Z,99063.63
2023-07-24T13:00:20.139Z,99051.75
2023-07-24T13:03:22.785Z,99040.75
2023-07-24T13:06:25.746Z,99053.88
2023-07-24T13:09:28.654Z,99042.94
2023-07-24T13:12:31.337Z,99045.63
2023-07-24T13:15:33.867Z,99030.28
2023-07-24T13:18:36.582Z,99030.53
2023-07-24T13:21:40.836Z,99028.09
2023-07-24T13:24:43.557Z,99020.34
2023-07-24T13:27:46.037Z,99021.31
2023-07-24T13:30:48.960Z,99015.66
2023-07-24T13:33:51.486Z,99007.53
2023-07-24T13:36:54.100Z,98987.59
2023-07-24T13:39:56.541Z,98981.59
2023-07-24T13:42:59.281Z,98966.91
2023-07-24T13:46:03.794Z,98959.09
2023-07-24T13:49:07.442Z,98954.75
2023-07-24T13:52:09.808Z,98950.09
2023-07-24T13:55:12.600Z,98950.59
2023-07-24T13:58:14.948Z,98946.44
2023-07-24T14:01:17.686Z,98952.97
2023-07-24T14:04:20.525Z,98951.69
2023-07-24T14:07:22.969Z,98952.09
2023-07-24T14:10:25.638Z,98937.59
2023-07-24T14:13:28.017Z,98943.38
2023-07-24T14:16:30.688Z,98933.34
2023-07-24T14:19:33.108Z,98917.53
2023-07-24T14:22:35.713Z,98911.72
2023-07-24T14:25:38.094Z,98910.00
2023-07-24T14:28:40.753Z,98893.31
2023-07-24T14:31:43.175Z,98890.53
2023-07-24T14:34:53.693Z,98877.12
2023-07-24T14:37:56.086Z,98873.50
2023-07-24T14:40:58.792Z,98873.63
2023-07-24T14:44:01.357Z,98866.50
2023-07-24T14:47:04.125Z,98856.69
2023-07-24T14:50:07.327Z,98865.63
2023-07-24T14:53:10.571Z,98855.63
2023-07-24T14:56:13.020Z,98845.47
2023-07-24T14:59:15.664Z,98836.13
2023-07-24T15:02:18.232Z,98836.88
2023-07-24T15:05:21.166Z,98827.69
2023-07-24T15:08:23.802Z,98827.78
2023-07-24T15:11:26.499Z,98836.38
2023-07-24T15:14:28.905Z,98827.22
2023-07-24T15:17:31.573Z,98792.94
2023-07-24T15:20:34.028Z,98826.22
2023-07-24T15:23:36.734Z,98823.00
2023-07-24T15:26:39.121Z,98821.44
2023-07-24T15:29:41.850Z,98810.44
2023-07-24T15:32:44.346Z,98815.47
2023-07-24T15:35:47.133Z,98815.31
2023-07-24T15:38:51.126Z,98815.03
2023-07-24T15:41:53.779Z,98815.53
2023-07-24T15:44:56.185Z,98817.72
2023-07-24T15:47:58.923Z,98800.91
2023-07-24T15:51:02.545Z,98797.97
2023-07-24T15:54:09.001Z,98798.91
2023-07-24T15:57:11.551Z,98794.31
2023-07-24T16:00:14.455Z,98802.00
2023-07-24T16:03:17.167Z,98797.19
2023-07-24T16:06:19.767Z,98793.16
2023-07-24T16:09:23.303Z,98756.03
2023-07-24T16:12:25.631Z,98784.06
2023-07-24T16:18:33.849Z,98770.69
2023-07-24T16:21:37.114Z,98763.19
2023-07-24T16:24:39.452Z,98756.75
2023-07-24T16:27:42.116Z,98753.47
2023-07-24T16:30:44.595Z,98762.53
2023-07-24T16:33:49.663Z,98771.31
2023-07-24T16:36:52.459Z,98765.94
2023-07-24T16:39:55.483Z,98768.03
2023-07-24T16:42:58.486Z,98767.16
2023-07-24T16:49:06.843Z,98766.22
2023-07-24T16:52:10.167Z,98758.50
2023-07-24T16:55:12.572Z,98774.72
2023-07-24T16:58:15.269Z,98776.34
2023-07-24T17:01:17.672Z,98769.13
2023-07-24T17:04:20.351Z,98776.47
2023-07-24T17:07:22.726Z,98777.03
2023-07-24T17:10:25.386Z,98781.22
2023-07-24T17:13:27.910Z,98767.03
2023-07-24T17:16:31.158Z,98771.59
2023-07-24T17:19:33.558Z,98771.31
2023-07-24T17:22:37.276Z,98763.38
2023-07-24T17:25:40.803Z,98761.97
2023-07-24T17:28:44.529Z,98752.97
2023-07-24T17:31:47.061Z,98758.19
2023-07-24T17:34:50.201Z,98758.19
2023-07-24T17:37:52.567Z,98756.66
2023-07-24T17:40:57.224Z,98750.59
2023-07-24T17:43:59.586Z,98736.91
2023-07-24T17:47:02.309Z,98743.84
2023-07-24T17:50:08.564Z,98737.50
2023-07-24T17:53:11.524Z,98751.72
2023-07-24T17:56:13.910Z,98761.44
2023-07-24T17:59:16.559Z,98765.09
2023-07-24T18:02:18.917Z,98775.50
2023-07-24T18:05:21.728Z,98786.22
2023-07-24T18:08:24.203Z,98790.88
2023-07-24T18:11:26.851Z,98792.44
2023-07-24T18:14:29.548Z,98790.72
2023-07-24T18:17:34.058Z,98786.38
2023-07-24T18:20:36.433Z,98800.97
2023-07-24T18:23:39.169Z,98809.97
2023-07-24T18:26:41.487Z,98811.16
2023-07-24T18:29:46.298Z,98825.19
2023-07-24T18:32:48.894Z,98847.34
2023-07-24T18:35:54.586Z,98850.37
2023-07-24T18:38:57.309Z,98842.41
2023-07-24T18:42:00.028Z,98856.59
2023-07-24T18:45:02.461Z,98839.97
2023-07-24T18:48:07.035Z,98816.44
2023-07-24T18:51:09.660Z,98798.81
2023-07-24T18:54:14.543Z,98774.22
2023-07-24T18:57:17.901Z,98779.59
2023-07-24T19:00:20.704Z,98783.59
2023-07-24T19:03:23.461Z,98794.66
2023-07-24T19:06:26.117Z,98797.06
2023-07-24T19:09:28.771Z,98805.94
2023-07-24T19:12:31.515Z,98794.47
2023-07-24T19:15:33.846Z,98793.41
2023-07-24T19:18:36.538Z,98812.03
2023-07-24T19:21:39.033Z,98834.97
2023-07-24T19:24:41.786Z,98841.81
2023-07-24T19:27:44.201Z,98866.66
2023-07-24T19:30:53.736Z,98884.12
2023-07-24T19:33:56.119Z,98894.66
2023-07-24T19:37:00.959Z,98921.72
2023-07-24T19:40:05.419Z,98936.72
2023-07-24T19:43:08.261Z,98953.72
2023-07-24T19:46:10.656Z,98950.44
2023-07-24T19:49:13.367Z,98958.63
2023-07-24T19:52:15.757Z,98961.50
2023-07-24T19:55:18.461Z,98955.88
2023-07-24T19:58:32.027Z,98969.97
2023-07-24T20:01:36.110Z,98955.31
2023-07-24T20:04:38.732Z,98953.44
2023-07-24T20:07:41.239Z,98946.53
2023-07-24T20:10:44.842Z,98944.22
2023-07-24T20:13:47.261Z,98961.38
2023-07-24T20:16:49.841Z,98982.25
2023-07-24T20:19:52.202Z,98983.72
2023-07-24T20:22:55.952Z,98982.56
2023-07-24T20:25:58.440Z,98986.63
2023-07-24T20:29:01.152Z,98984.59
2023-07-24T20:32:07.540Z,98992.84
2023-07-24T20:35:10.514Z,98985.44
2023-07-24T20:38:42.722Z,98989.03
2023-07-24T20:41:46.105Z,98990.91
2023-07-24T20:44:52.455Z,98984.16
2023-07-24T20:47:55.195Z,98980.91
2023-07-24T20:50:57.653Z,98968.28
2023-07-24T20:54:00.411Z,98964.94
2023-07-24T20:57:02.852Z,98969.84
2023-07-24T21:00:06.155Z,98972.78
2023-07-24T21:03:08.595Z,98994.75
2023-07-24T21:06:11.471Z,99007.97
2023-07-24T21:09:15.586Z,99014.19
2023-07-24T21:12:19.791Z,99021.09
2023-07-24T21:15:24.284Z,99028.69
2023-07-24T21:18:26.854Z,99029.16
2023-07-24T21:21:29.770Z,99037.59
2023-07-24T21:24:32.339Z,99037.00
2023-07-24T21:27:35.105Z,99043.03
2023-07-24T21:30:37.786Z,99041.63
2023-07-24T21:33:41.255Z,99038.41
2023-07-24T21:36:43.711Z,99037.00
2023-07-24T21:39:46.425Z,99035.66
2023-07-24T21:42:48.867Z,99026.47
2023-07-24T21:45:54.100Z,99031.50
2023-07-24T21:48:56.847Z,99026.78
2023-07-24T21:52:01.602Z,99021.97
2023-07-24T21:55:04.278Z,99026.84
2023-07-24T21:58:07.764Z,99015.13
2023-07-24T22:01:10.259Z,99007.75
2023-07-24T22:04:13.817Z,99017.13
2023-07-24T22:07:16.260Z,99012.88
2023-07-24T22:10:19.370Z,99025.09
2023-07-24T22:13:21.884Z,99017.63
2023-07-24T22:16:24.691Z,99018.59
2023-07-24T22:19:27.180Z,99026.97
2023-07-24T22:22:31.507Z,99011.88
2023-07-24T22:25:33.971Z,99007.00
2023-07-24T22:28:37.557Z,98992.00
2023-07-24T22:31:40.027Z,98994.75
2023-07-24T22:34:42.889Z,99002.37
2023-07-24T22:37:45.305Z,99007.00
2023-07-24T22:40:47.984Z,99008.88
2023-07-24T22:43:50.477Z,99005.59
2023-07-24T22:46:55.043Z,98992.88
2023-07-24T22:49:57.518Z,98997.63
2023-07-24T22:53:00.197Z,98984.09
2023-07-24T22:56:02.575Z,98981.97
2023-07-24T22:59:19.642Z,98975.81
2023-07-24T23:02:22.036Z,98980.69
2023-07-24T23:05:24.680Z,98984.03
2023-07-24T23:08:26.995Z,98975.47
2023-07-24T23:11:29.869Z,98991.06
2023-07-24T23:14:34.331Z,99000.59
2023-07-24T23:17:37.105Z,99000.84
2023-07-24T23:20:39.595Z,99003.88
2023-07-24T23:23:42.600Z,99017.84
2023-07-24T23:26:44.954Z,99020.47
2023-07-24T23:29:47.658Z,99028.59
2023-07-24T23:32:50.009Z,99049.03
2023-07-24T23:35:54.265Z,99065.25
2023-07-24T23:38:56.646Z,99088.50
2023-07-24T23:41:59.252Z,99099.78
2023-07-24T23:45:01.595Z,99099.78
2023-07-24T23:48:04.610Z,99091.25
2023-07-24T23:51:17.728Z,99106.59
2023-07-24T23:54:20.630Z,99096.75
2023-07-24T23:57:22.997Z,99088.88
